Time;durP1;ratioP1;P1;durP2;ratioP2;P2;SDS_P1;SDS_P2;PMS_P1;PMS_P2;Temp;Humidity;BMP_temperature;BMP_pressure;BME280_temperature;BME280_humidity;BME280_pressure;Samples;Min_cycle;Max_cycle;Signal;HPM_P1;HPM_P2
2022/06/08 00:00:45;;;;;;;3.65;0.10;;;;;;;26.92;48.23;99935.94;5088768;28;20088;-69
2022/06/08 00:03:18;;;;;;;0.40;0.00;;;;;;;26.91;47.89;99928.19;5088241;28;20028;-69
2022/06/08 00:05:43;;;;;;;1.73;0.10;;;;;;;26.91;47.47;99910.28;5087957;28;20024;-70
2022/06/08 00:08:09;;;;;;;1.13;0.10;;;;;;;26.90;47.35;99907.88;5088060;28;20562;-69
2022/06/08 00:10:35;;;;;;;2.90;0.10;;;;;;;26.88;47.15;99896.66;5089885;28;20559;-69
2022/06/08 00:13:00;;;;;;;5.45;0.10;;;;;;;26.88;46.82;99892.09;5086827;28;20116;-70
2022/06/08 00:15:26;;;;;;;0.70;0.00;;;;;;;26.89;46.61;99883.03;5086432;28;20032;-70
2022/06/08 00:17:52;;;;;;;1.67;0.00;;;;;;;26.91;46.41;99882.75;5085146;28;20040;-70
2022/06/08 00:20:18;;;;;;;1.50;0.10;;;;;;;26.92;46.22;99893.19;5088577;28;20032;-69
2022/06/08 00:22:44;;;;;;;0.57;0.10;;;;;;;26.94;46.28;99887.56;5087206;28;20027;-70
2022/06/08 00:25:12;;;;;;;0.30;0.10;;;;;;;26.94;46.23;99887.56;5087301;28;20036;-70
2022/06/08 00:27:37;;;;;;;3.65;0.10;;;;;;;26.94;45.95;99892.91;5085949;28;20031;-69
2022/06/08 00:30:06;;;;;;;1.80;0.10;;;;;;;26.95;45.94;99894.50;5089943;28;20020;-69
2022/06/08 00:32:31;;;;;;;0.20;0.00;;;;;;;26.95;45.94;99889.16;5087396;28;20488;-69
2022/06/08 00:34:57;;;;;;;1.60;0.00;;;;;;;26.95;45.58;99900.63;5087937;28;20073;-69
2022/06/08 00:37:24;;;;;;;0.55;0.00;;;;;;;26.95;45.90;99902.50;5085884;28;21185;-69
2022/06/08 00:39:49;;;;;;;0.10;0.00;;;;;;;26.94;45.42;99900.94;5084419;28;20043;-69
2022/06/08 00:42:16;;;;;;;0.30;0.00;;;;;;;26.94;45.46;99892.91;5087339;28;20031;-69
2022/06/08 00:44:52;;;;;;;2.47;0.00;;;;;;;26.91;45.09;99898.78;5089562;28;20484;-69
2022/06/08 00:47:34;;;;;;;2.13;0.08;;;;;;;26.88;44.95;99892.09;5085689;28;20032;-70
2022/06/08 00:50:15;;;;;;;0.20;0.00;;;;;;;26.86;45.00;99890.75;5083770;28;20119;-70
2022/06/08 00:52:43;;;;;;;2.28;0.00;;;;;;;26.87;44.80;99892.38;5087755;28;20566;-69
2022/06/08 00:55:12;;;;;;;3.03;0.00;;;;;;;26.86;44.84;99890.75;5082642;28;20066;-69
2022/06/08 00:57:51;;;;;;;0.30;0.00;;;;;;;26.83;44.80;99884.06;5086147;28;20028;-69
2022/06/08 01:00:25;;;;;;;1.65;0.00;;;;;;;26.83;44.67;99885.94;5087014;28;20122;-69
2022/06/08 01:02:51;;;;;;;0.22;0.00;;;;;;;26.84;44.67;99890.22;5086541;28;20488;-69
2022/06/08 01:05:35;;;;;;;0.57;0.00;;;;;;;26.81;44.53;99890.75;5087789;28;20047;-69
2022/06/08 01:08:16;;;;;;;0.95;0.00;;;;;;;26.79;44.59;99893.69;5086257;28;20028;-69
2022/06/08 01:10:48;;;;;;;0.68;0.10;;;;;;;26.80;44.61;99899.84;5086832;28;20024;-68
2022/06/08 01:13:14;;;;;;;0.57;0.00;;;;;;;26.79;44.34;99909.72;5073743;28;20228;-68
2022/06/08 01:15:41;;;;;;;1.38;0.20;;;;;;;26.80;44.44;99905.19;5077260;28;20216;-69
2022/06/08 01:18:08;;;;;;;0.43;0.00;;;;;;;26.80;44.27;99913.19;5080554;28;20028;-69
2022/06/08 01:20:34;;;;;;;0.10;0.00;;;;;;;26.81;44.13;99914.81;5068614;28;20107;-69
2022/06/08 01:23:00;;;;;;;0.20;0.00;;;;;;;26.81;44.40;99920.94;5067808;28;20116;-69
2022/06/08 01:25:37;;;;;;;1.05;0.00;;;;;;;26.81;43.99;99920.94;5071838;28;20034;-68
2022/06/08 01:28:08;;;;;;;0.10;0.00;;;;;;;26.82;44.13;99927.09;5073589;28;20060;-69
2022/06/08 01:30:53;;;;;;;0.73;0.00;;;;;;;26.81;44.26;99926.28;5066746;28;20044;-69
2022/06/08 01:33:48;;;;;;;0.10;0.00;;;;;;;26.80;44.17;99932.72;5067565;28;20031;-69
2022/06/08 01:36:48;;;;;;;3.45;0.00;;;;;;;26.78;44.28;99924.97;5078147;28;20028;-69
2022/06/08 01:39:24;;;;;;;0.10;0.00;;;;;;;26.78;44.46;99938.31;5061109;28;20028;-69
2022/06/08 01:41:50;;;;;;;1.02;0.00;;;;;;;26.81;44.32;99930.84;5077637;28;20562;-69
2022/06/08 01:44:40;;;;;;;1.65;0.10;;;;;;;26.79;44.45;99933.78;5067299;28;20028;-69
2022/06/08 01:47:21;;;;;;;1.13;0.00;;;;;;;26.78;44.64;99943.66;5068857;28;20068;-69
2022/06/08 01:50:11;;;;;;;2.05;0.00;;;;;;;26.76;44.69;99940.44;5065714;28;20028;-69
2022/06/08 01:52:49;;;;;;;0.55;0.00;;;;;;;26.76;44.54;99939.66;5065717;28;20129;-69
2022/06/08 01:55:23;;;;;;;0.00;0.00;;;;;;;26.75;44.71;99938.84;5062559;28;20021;-69
2022/06/08 01:58:03;;;;;;;0.15;0.00;;;;;;;26.74;44.43;99929.22;5065882;28;20036;-69
2022/06/08 02:00:43;;;;;;;0.10;0.00;;;;;;;26.74;44.57;99928.41;5055217;28;20044;-69
2022/06/08 02:03:22;;;;;;;0.17;0.00;;;;;;;26.73;44.81;99940.16;5064927;28;20036;-69
2022/06/08 02:05:58;;;;;;;0.10;0.00;;;;;;;26.72;44.64;99947.38;5078342;28;20032;-69
2022/06/08 02:08:23;;;;;;;;;;;;;;;26.64;44.76;99926.50;5067670;28;20485;-69
2022/06/08 02:11:10;;;;;;;0.75;0.00;;;;;;;26.66;44.71;99929.72;5064073;28;19920;-69
2022/06/08 02:13:51;;;;;;;0.10;0.00;;;;;;;26.71;44.70;99936.97;5083055;28;20384;-69
2022/06/08 02:16:31;;;;;;;0.90;0.00;;;;;;;26.73;44.71;99943.66;5085961;28;20032;-69
2022/06/08 02:19:04;;;;;;;0.00;0.00;;;;;;;26.74;44.83;99936.44;5085728;28;20028;-69
2022/06/08 02:21:42;;;;;;;0.43;0.00;;;;;;;26.75;44.87;99938.03;5085446;28;20032;-69
2022/06/08 02:24:19;;;;;;;1.48;0.00;;;;;;;26.74;44.85;99942.56;5081186;28;20067;-69
2022/06/08 02:26:55;;;;;;;0.30;0.00;;;;;;;26.75;44.68;99944.19;5084453;28;20059;-69
2022/06/08 02:29:41;;;;;;;0.10;0.00;;;;;;;26.75;44.61;99949.53;5084930;28;20561;-69
2022/06/08 02:35:01;;;;;;;0.10;0.00;;;;;;;26.77;44.62;99963.44;5083757;28;20101;-68
2022/06/08 02:37:31;;;;;;;0.10;0.00;;;;;;;26.80;44.45;99947.94;5086384;28;20031;-68
2022/06/08 02:40:03;;;;;;;0.20;0.00;;;;;;;26.78;44.28;99949.00;5082909;28;20029;-69
2022/06/08 02:42:33;;;;;;;0.52;0.00;;;;;;;26.80;44.54;99945.25;5087095;28;20031;-68
2022/06/08 02:45:05;;;;;;;0.10;0.00;;;;;;;26.80;44.47;99943.41;5076311;28;20032;-69
2022/06/08 02:47:35;;;;;;;0.08;0.00;;;;;;;26.78;44.47;99946.34;5076792;28;20069;-69
2022/06/08 02:50:09;;;;;;;1.30;0.00;;;;;;;26.80;44.61;99940.72;5088825;28;20031;-68
2022/06/08 02:52:36;;;;;;;0.63;0.00;;;;;;;26.81;44.62;99944.19;5091011;28;20394;-69
2022/06/08 02:55:05;;;;;;;0.30;0.00;;;;;;;26.81;44.77;99952.22;5089048;28;20391;-69
2022/06/08 02:57:49;;;;;;;0.10;0.03;;;;;;;26.80;44.60;99951.41;5089969;28;20028;-69
2022/06/08 03:00:21;;;;;;;0.65;0.00;;;;;;;26.78;44.73;99959.69;5065482;28;20383;-70
2022/06/08 03:02:57;;;;;;;0.20;0.00;;;;;;;26.77;44.78;99958.09;5088520;28;20089;-70
2022/06/08 03:05:29;;;;;;;2.13;0.00;;;;;;;26.78;44.80;99954.34;5089296;28;20031;-68
2022/06/08 03:07:59;;;;;;;2.30;0.00;;;;;;;26.78;44.74;99946.34;5091222;28;20028;-69
2022/06/08 03:10:30;;;;;;;1.08;0.00;;;;;;;26.78;44.71;99949.00;5090137;28;20470;-68
2022/06/08 03:13:21;;;;;;;0.00;0.00;;;;;;;26.75;44.76;99954.88;5091166;28;20142;-68
2022/06/08 03:16:01;;;;;;;2.22;0.00;;;;;;;26.74;44.41;99947.94;5085716;28;20130;-68
2022/06/08 03:18:28;;;;;;;0.10;0.00;;;;;;;26.75;44.40;99948.72;5089452;28;20061;-69
2022/06/08 03:20:55;;;;;;;0.10;0.00;;;;;;;26.74;44.58;99941.78;5091138;28;20024;-68
2022/06/08 03:23:21;;;;;;;0.75;0.00;;;;;;;26.72;44.67;99939.38;5089268;28;20119;-69
2022/06/08 03:25:47;;;;;;;0.20;0.00;;;;;;;26.73;44.66;99934.81;5087975;28;20111;-69
2022/06/08 03:28:14;;;;;;;0.40;0.00;;;;;;;26.73;44.67;99937.50;5091080;28;20020;-69
2022/06/08 03:30:41;;;;;;;0.22;0.00;;;;;;;26.71;44.38;99937.75;5089248;28;20388;-69
2022/06/08 03:33:07;;;;;;;0.63;0.00;;;;;;;26.71;44.38;99936.97;5085732;28;20043;-69
2022/06/08 03:35:32;;;;;;;0.90;0.00;;;;;;;26.70;44.39;99933.47;5088708;28;20032;-69
2022/06/08 03:37:59;;;;;;;0.30;0.00;;;;;;;26.70;44.23;99930.00;5088569;28;20094;-68
2022/06/08 03:40:25;;;;;;;3.70;0.25;;;;;;;26.71;44.08;99942.31;5086672;28;20492;-69
2022/06/08 03:42:50;;;;;;;1.77;0.00;;;;;;;26.71;44.02;99947.66;5089583;28;20043;-69
2022/06/08 03:45:16;;;;;;;0.00;0.00;;;;;;;26.70;44.06;99949.50;5088525;28;20035;-69
2022/06/08 03:47:45;;;;;;;0.28;0.00;;;;;;;26.71;44.24;99953.78;5089751;28;20082;-68
2022/06/08 03:50:14;;;;;;;0.28;0.00;;;;;;;26.71;44.32;99961.81;5087482;28;20028;-69
2022/06/08 03:52:45;;;;;;;0.00;0.00;;;;;;;26.71;44.12;99963.69;5090331;28;20038;-68
2022/06/08 03:55:14;;;;;;;0.00;0.00;;;;;;;26.70;44.16;99968.22;5087904;28;20400;-68
2022/06/08 03:57:44;;;;;;;0.00;0.00;;;;;;;26.71;44.25;99969.03;5085591;28;20028;-69
2022/06/08 04:00:12;;;;;;;0.13;0.00;;;;;;;26.69;44.24;99971.97;5087418;28;20125;-69
2022/06/08 04:02:38;;;;;;;0.30;0.00;;;;;;;26.68;44.08;99975.69;5087709;28;20032;-69
2022/06/08 04:05:04;;;;;;;1.00;0.00;;;;;;;26.67;44.03;99971.41;5086833;28;20523;-69
2022/06/08 04:07:30;;;;;;;1.23;0.00;;;;;;;26.65;44.25;99973.53;5085958;28;20066;-68
2022/06/08 04:09:55;;;;;;;3.83;0.00;;;;;;;26.59;43.98;99971.91;5088240;28;20060;-68
2022/06/08 04:12:22;;;;;;;0.22;0.00;;;;;;;26.57;43.81;99963.34;5087852;28;20131;-68
2022/06/08 04:14:50;;;;;;;1.52;0.00;;;;;;;26.54;43.73;99968.41;5089443;28;20035;-68
2022/06/08 04:17:16;;;;;;;2.38;0.00;;;;;;;26.50;43.89;99962.78;5085783;28;20043;-69
2022/06/08 04:19:41;;;;;;;1.55;0.10;;;;;;;26.49;44.11;99958.50;5083737;28;20028;-67
2022/06/08 04:22:06;;;;;;;1.65;0.10;;;;;;;26.57;44.45;99966.03;5088525;28;20394;-68
2022/06/08 04:24:32;;;;;;;2.60;0.10;;;;;;;26.65;45.18;99960.19;5085306;28;20028;-67
2022/06/08 04:26:58;;;;;;;4.00;0.10;;;;;;;26.63;44.43;99961.50;5086717;28;20082;-69
2022/06/08 04:29:23;;;;;;;0.52;0.10;;;;;;;26.60;43.57;99954.81;5086882;28;20043;-68
2022/06/08 04:31:49;;;;;;;2.08;0.10;;;;;;;26.56;43.54;99956.41;5082275;28;20036;-69
2022/06/08 04:34:15;;;;;;;1.65;0.10;;;;;;;26.57;43.61;99955.34;5086789;28;20066;-68
2022/06/08 04:36:42;;;;;;;1.30;0.13;;;;;;;26.59;43.52;99955.88;5082520;28;20047;-68
2022/06/08 04:39:09;;;;;;;2.75;0.10;;;;;;;26.59;43.34;99960.41;5069346;28;20115;-68
2022/06/08 04:41:36;;;;;;;0.15;0.00;;;;;;;26.60;43.23;99962.84;5082265;28;20024;-68
2022/06/08 04:44:02;;;;;;;1.38;0.03;;;;;;;26.59;43.10;99950.53;5078071;28;20035;-69
2022/06/08 04:46:28;;;;;;;0.75;0.00;;;;;;;26.60;43.05;99957.50;5086762;28;20043;-68
2022/06/08 04:48:53;;;;;;;2.53;0.00;;;;;;;26.62;43.26;99966.06;5087760;28;20016;-69
2022/06/08 04:51:19;;;;;;;2.90;0.20;;;;;;;26.62;43.19;99966.06;5086580;28;20063;-69
2022/06/08 04:53:47;;;;;;;0.17;0.00;;;;;;;26.63;43.21;99961.50;5089657;28;20020;-68
2022/06/08 04:56:14;;;;;;;0.55;0.00;;;;;;;26.64;43.34;99965.78;5086480;28;20040;-69
2022/06/08 04:58:39;;;;;;;1.42;0.00;;;;;;;26.64;43.33;99958.56;5089428;28;20024;-70
2022/06/08 05:01:05;;;;;;;0.10;0.00;;;;;;;26.64;43.36;99961.25;5083475;28;20051;-69
2022/06/08 05:03:31;;;;;;;0.30;0.00;;;;;;;26.65;43.69;99956.72;5068984;28;20030;-69
2022/06/08 05:05:58;;;;;;;2.20;0.00;;;;;;;26.67;43.63;99965.25;5069961;28;20038;-69
2022/06/08 05:08:24;;;;;;;0.00;0.00;;;;;;;26.67;43.83;99963.41;5068282;28;20115;-69
2022/06/08 05:10:51;;;;;;;0.00;0.00;;;;;;;26.67;43.78;99962.59;5068508;28;20028;-69
2022/06/08 05:13:18;;;;;;;0.43;0.00;;;;;;;26.66;43.96;99960.97;5068284;28;20416;-69
2022/06/08 05:15:44;;;;;;;0.35;0.00;;;;;;;26.66;44.10;99952.97;5067688;28;20025;-68
2022/06/08 05:18:12;;;;;;;0.45;0.00;;;;;;;26.65;44.07;99951.38;5067486;28;20472;-68
2022/06/08 05:20:40;;;;;;;0.55;0.00;;;;;;;26.65;44.07;99954.84;5067520;28;20036;-69
2022/06/08 05:23:09;;;;;;;0.25;0.00;;;;;;;26.65;44.14;99960.19;5066991;28;20032;-68
2022/06/08 05:25:38;;;;;;;3.25;0.30;;;;;;;26.64;43.86;99953.22;5066153;28;20028;-68
2022/06/08 05:28:06;;;;;;;0.38;0.00;;;;;;;26.64;44.26;99958.56;5068375;28;20028;-68
2022/06/08 05:30:32;;;;;;;1.15;0.00;;;;;;;26.64;44.75;99963.91;5067332;28;20067;-69
2022/06/08 05:32:58;;;;;;;2.70;0.10;;;;;;;26.64;44.35;99965.78;5067308;28;20102;-69
2022/06/08 05:35:24;;;;;;;1.88;0.10;;;;;;;26.63;44.29;99969.53;5067148;28;20592;-69
2022/06/08 05:37:50;;;;;;;2.58;0.00;;;;;;;26.62;44.36;99981.28;5067428;28;20225;-68
2022/06/08 05:40:16;;;;;;;1.90;0.10;;;;;;;26.61;44.37;99977.00;5067437;28;20119;-68
2022/06/08 05:42:41;;;;;;;0.90;0.00;;;;;;;26.60;44.70;99975.38;5066917;28;20412;-69
2022/06/08 05:45:09;;;;;;;1.08;0.13;;;;;;;26.58;44.68;99978.31;5067406;28;20024;-70
2022/06/08 05:47:35;;;;;;;1.02;0.00;;;;;;;26.57;44.66;99978.56;5067944;28;20042;-68
2022/06/08 05:50:00;;;;;;;1.10;0.00;;;;;;;26.56;44.87;99983.13;5067600;28;20429;-69
2022/06/08 05:52:26;;;;;;;0.10;0.00;;;;;;;26.56;44.82;99988.47;5052944;28;20424;-69
2022/06/08 05:54:52;;;;;;;4.75;0.10;;;;;;;26.55;45.15;99978.84;5063851;28;20044;-69
2022/06/08 05:57:17;;;;;;;1.00;0.00;;;;;;;26.54;44.90;99979.91;5066664;28;20047;-69
2022/06/08 05:59:43;;;;;;;0.88;0.10;;;;;;;26.55;44.99;99991.41;5067673;28;20024;-69
2022/06/08 06:02:12;;;;;;;1.02;0.00;;;;;;;26.55;44.81;99992.19;5067587;28;20442;-69
2022/06/08 06:04:37;;;;;;;0.68;0.08;;;;;;;26.54;45.23;99995.94;5067664;28;20577;-69
2022/06/08 06:07:03;;;;;;;0.95;0.10;;;;;;;26.55;45.26;99996.75;5065430;28;20028;-69
2022/06/08 06:09:29;;;;;;;3.70;0.10;;;;;;;26.55;45.92;100002.88;5067198;28;20029;-69
2022/06/08 06:11:55;;;;;;;4.03;0.20;;;;;;;26.58;46.09;99996.22;5062455;28;20056;-69
2022/06/08 06:14:20;;;;;;;1.00;0.20;;;;;;;26.62;46.62;100014.13;5084733;28;20502;-70
2022/06/08 06:16:45;;;;;;;0.82;0.10;;;;;;;26.64;46.93;100008.53;5081500;28;20553;-69
2022/06/08 06:19:11;;;;;;;4.22;0.32;;;;;;;26.64;46.78;100012.00;5083464;28;20028;-69
2022/06/08 06:21:37;;;;;;;1.33;0.35;;;;;;;26.61;46.67;100020.53;5085469;28;20027;-69
2022/06/08 06:24:04;;;;;;;5.18;0.20;;;;;;;26.59;47.40;100024.53;5083477;28;20033;-69
2022/06/08 06:26:30;;;;;;;5.28;0.20;;;;;;;26.56;46.83;100023.19;5089422;28;20055;-69
2022/06/08 06:28:57;;;;;;;2.95;0.30;;;;;;;26.55;47.13;100020.78;5088297;28;20534;-70
2022/06/08 06:31:48;;;;;;;6.75;0.20;;;;;;;26.52;46.84;100027.44;5071426;28;20029;-70
2022/06/08 06:34:16;;;;;;;3.08;0.45;;;;;;;26.51;46.76;100036.53;5067544;28;20044;-69
2022/06/08 06:36:42;;;;;;;1.80;0.20;;;;;;;26.50;47.02;100024.22;5067606;28;20664;-70
2022/06/08 06:39:08;;;;;;;3.00;0.10;;;;;;;26.50;47.05;100037.59;5080184;28;20208;-69
2022/06/08 06:41:35;;;;;;;4.22;0.20;;;;;;;26.51;46.71;100035.72;5084429;28;20030;-70
2022/06/08 06:44:00;;;;;;;4.93;0.20;;;;;;;26.51;47.12;100041.88;5084729;28;20508;-69
2022/06/08 06:46:26;;;;;;;1.52;0.15;;;;;;;26.50;46.99;100037.59;5067620;28;20099;-70
2022/06/08 06:48:52;;;;;;;0.93;0.10;;;;;;;26.50;46.76;100042.13;5082774;28;20032;-69
2022/06/08 06:51:17;;;;;;;0.85;0.10;;;;;;;26.50;46.56;100045.59;5087607;28;20132;-69
2022/06/08 06:53:43;;;;;;;2.70;0.10;;;;;;;26.50;46.96;100052.81;5087724;28;20388;-69
2022/06/08 06:56:09;;;;;;;0.55;0.10;;;;;;;26.51;46.58;100055.22;5084118;28;20509;-70
2022/06/08 06:58:35;;;;;;;0.77;0.10;;;;;;;26.51;46.35;100049.06;5083829;28;20024;-68
2022/06/08 07:01:01;;;;;;;1.55;0.10;;;;;;;26.53;46.66;100055.75;5083793;28;20119;-68
2022/06/08 07:03:27;;;;;;;1.23;0.10;;;;;;;26.52;46.67;100054.16;5086013;28;20120;-68
2022/06/08 07:05:53;;;;;;;1.02;0.00;;;;;;;26.54;46.65;100059.25;5078287;28;20024;-69
2022/06/08 07:08:18;;;;;;;1.75;0.10;;;;;;;26.55;46.72;100061.66;5084944;28;20040;-70
2022/06/08 07:11:32;;;;;;;0.65;0.03;;;;;;;26.56;46.60;100057.91;5082979;28;20028;-69
2022/06/08 07:13:29;;;;;;;1.65;0.10;;;;;;;26.54;46.52;100053.91;5077273;28;20044;-69
2022/06/08 07:15:54;;;;;;;0.73;0.05;;;;;;;26.52;46.27;100054.16;5082390;28;20541;-68
2022/06/08 07:18:20;;;;;;;1.30;0.00;;;;;;;26.51;46.17;100047.19;5082777;28;20067;-69
2022/06/08 07:20:45;;;;;;;3.03;0.10;;;;;;;26.49;45.97;100046.66;5084308;28;20441;-69
2022/06/08 07:23:11;;;;;;;0.80;0.00;;;;;;;26.49;45.72;100048.53;5083330;28;20126;-69
2022/06/08 07:25:36;;;;;;;0.63;0.00;;;;;;;26.47;45.56;100048.78;5086148;28;20177;-69
2022/06/08 07:28:02;;;;;;;0.30;0.00;;;;;;;26.46;45.20;100047.22;5082957;28;20031;-69
2022/06/08 07:30:27;;;;;;;0.60;0.10;;;;;;;26.46;45.22;100044.53;5085098;28;20036;-69
2022/06/08 07:32:53;;;;;;;1.52;0.10;;;;;;;26.45;45.31;100040.25;5087492;28;20040;-69
2022/06/08 07:35:18;;;;;;;1.58;0.00;;;;;;;26.44;45.12;100044.00;5081631;28;20035;-69
2022/06/08 07:37:43;;;;;;;0.32;0.10;;;;;;;26.44;45.09;100044.00;5082496;28;20373;-69
2022/06/08 07:40:09;;;;;;;0.82;0.00;;;;;;;26.44;45.02;100041.31;5081043;28;20471;-69
2022/06/08 07:42:37;;;;;;;2.58;0.00;;;;;;;26.44;45.15;100044.00;5071046;28;20029;-69
2022/06/08 07:45:04;;;;;;;0.85;0.10;;;;;;;26.45;45.09;100045.59;5076362;28;20102;-69
2022/06/08 07:47:30;;;;;;;0.32;0.00;;;;;;;26.44;44.91;100044.00;5090502;28;20032;-69
2022/06/08 07:49:55;;;;;;;1.65;0.00;;;;;;;26.43;45.17;100042.38;5082602;28;20036;-69
2022/06/08 07:52:22;;;;;;;0.52;0.08;;;;;;;26.42;45.19;100049.59;5082360;28;20040;-69
2022/06/08 07:54:48;;;;;;;0.05;0.00;;;;;;;26.42;45.13;100046.13;5084560;28;20028;-68
2022/06/08 07:57:20;;;;;;;0.52;0.10;;;;;;;26.39;45.47;100047.44;5085563;28;20035;-69
2022/06/08 07:59:46;;;;;;;1.48;0.00;;;;;;;26.35;44.96;100057.03;5086154;28;20511;-69
2022/06/08 08:02:11;;;;;;;2.05;0.10;;;;;;;26.30;45.04;100061.50;5087317;28;20024;-69
2022/06/08 08:04:37;;;;;;;3.60;0.10;;;;;;;26.25;45.13;100064.94;5089987;28;20107;-70
2022/06/08 08:07:03;;;;;;;1.63;0.00;;;;;;;26.19;45.53;100068.63;5090167;28;20032;-69
2022/06/08 08:09:31;;;;;;;0.28;0.10;;;;;;;26.17;45.48;100060.06;5090325;28;20047;-69
2022/06/08 08:11:57;;;;;;;0.30;0.00;;;;;;;26.17;45.43;100064.59;5090149;28;20060;-69
2022/06/08 08:14:24;;;;;;;1.38;0.00;;;;;;;26.17;45.33;100059.25;5090047;28;20563;-69
2022/06/08 08:16:50;;;;;;;0.52;0.00;;;;;;;26.15;45.20;100056.03;5090104;28;20353;-70
2022/06/08 08:19:18;;;;;;;1.75;0.00;;;;;;;26.11;45.47;100061.09;5090086;28;20028;-70
2022/06/08 08:21:45;;;;;;;0.77;0.00;;;;;;;26.06;45.47;100056.53;5085553;28;20071;-69
2022/06/08 08:24:10;;;;;;;4.22;0.10;;;;;;;25.99;45.67;100053.28;5065638;28;20111;-69
2022/06/08 08:26:36;;;;;;;2.55;0.05;;;;;;;25.93;45.35;100048.97;5076586;28;20107;-69
2022/06/08 08:29:03;;;;;;;1.20;0.00;;;;;;;25.93;45.29;100048.97;5065512;28;20060;-70
2022/06/08 08:31:28;;;;;;;0.25;0.20;;;;;;;25.92;45.33;100043.88;5076181;28;20032;-69
2022/06/08 08:33:54;;;;;;;1.50;0.00;;;;;;;25.94;45.25;100039.91;5089866;28;20032;-69
2022/06/08 08:36:19;;;;;;;0.45;0.03;;;;;;;25.93;45.11;100032.97;5089918;28;20016;-69
2022/06/08 08:38:45;;;;;;;1.83;0.05;;;;;;;25.93;45.25;100038.28;5089731;28;20103;-69
2022/06/08 08:44:05;;;;;;;0.17;0.00;;;;;;;25.92;45.67;100034.00;5089402;28;20109;-69
2022/06/08 08:46:55;;;;;;;3.55;0.00;;;;;;;25.91;46.15;100034.28;5089518;28;20116;-69
2022/06/08 08:49:23;;;;;;;0.10;0.00;;;;;;;25.89;46.08;100042.53;5089528;28;20038;-69
2022/06/08 08:52:13;;;;;;;0.85;0.10;;;;;;;25.80;46.01;100028.03;5089544;28;20389;-69
2022/06/08 08:54:54;;;;;;;2.47;0.10;;;;;;;25.81;46.41;100035.00;5089297;28;20059;-70
2022/06/08 08:57:55;;;;;;;0.40;0.10;;;;;;;25.79;46.38;100032.56;5089597;28;20392;-69
2022/06/08 09:00:28;;;;;;;1.02;0.10;;;;;;;25.77;46.32;100028.56;5089197;28;20476;-69
2022/06/08 09:05:42;;;;;;;1.75;0.00;;;;;;;25.75;46.45;100025.34;5089457;28;20043;-69
2022/06/08 09:08:10;;;;;;;0.52;0.00;;;;;;;25.74;46.50;100021.06;5088912;28;20048;-69
2022/06/08 09:10:36;;;;;;;1.67;0.00;;;;;;;25.74;46.26;100019.19;5088795;28;20113;-70
2022/06/08 09:13:03;;;;;;;1.25;0.00;;;;;;;25.74;46.33;100016.53;5074770;28;20489;-69
2022/06/08 09:16:01;;;;;;;1.75;0.00;;;;;;;25.71;46.25;100010.91;5062036;28;20536;-69
2022/06/08 09:18:33;;;;;;;1.60;0.10;;;;;;;25.71;46.25;100002.88;5023994;28;20386;-69
2022/06/08 09:21:00;;;;;;;0.08;0.00;;;;;;;25.73;46.58;100006.09;5068710;28;20033;-69
2022/06/08 09:23:43;;;;;;;1.13;0.00;;;;;;;25.74;46.61;100002.38;5068673;28;20043;-70
2022/06/08 09:26:27;;;;;;;2.08;0.30;;;;;;;25.74;46.38;99995.19;5068855;28;20102;-69
2022/06/08 09:29:20;;;;;;;0.52;0.00;;;;;;;25.72;46.41;99993.81;5068517;28;20530;-69
2022/06/08 09:31:47;;;;;;;0.40;0.00;;;;;;;25.74;46.33;99983.69;5068560;28;20040;-69
2022/06/08 09:34:27;;;;;;;0.77;0.10;;;;;;;25.74;46.47;99984.50;5068580;28;20120;-69
2022/06/08 09:37:11;;;;;;;1.65;0.00;;;;;;;25.77;46.31;99967.19;5068489;28;20021;-69
2022/06/08 09:39:39;;;;;;;0.65;0.10;;;;;;;25.78;46.27;99977.59;5068435;28;20547;-69
2022/06/08 09:42:37;;;;;;;1.02;0.10;;;;;;;25.71;45.85;99976.22;5068236;28;20026;-70
2022/06/08 09:45:43;;;;;;;2.97;0.10;;;;;;;25.66;44.58;99963.63;5067455;28;20099;-69
2022/06/08 09:51:45;;;;;;;1.48;0.15;;;;;;;25.67;43.50;99964.44;5068063;28;20285;-69
2022/06/08 09:54:19;;;;;;;0.20;0.00;;;;;;;25.69;43.41;99965.00;5067808;28;20055;-69
2022/06/08 09:57:11;;;;;;;0.20;0.00;;;;;;;25.67;42.74;99959.91;5068241;28;20103;-69
2022/06/08 09:59:51;;;;;;;0.30;0.00;;;;;;;25.69;42.63;99963.13;5056755;28;20373;-69
2022/06/08 10:02:17;;;;;;;0.20;0.00;;;;;;;25.69;42.49;99962.31;5067942;28;20032;-70
2022/06/08 10:05:04;;;;;;;0.77;0.00;;;;;;;25.67;42.71;99956.44;5068102;28;20032;-69
2022/06/08 10:07:45;;;;;;;1.17;0.28;;;;;;;25.67;42.74;99959.91;5068259;28;20381;-70
2022/06/08 10:10:24;;;;;;;4.70;0.00;;;;;;;25.67;43.79;99951.91;5067941;28;20051;-69
2022/06/08 10:12:55;;;;;;;1.55;0.10;;;;;;;25.70;44.04;99958.59;5078391;28;20059;-69
2022/06/08 10:15:20;;;;;;;5.55;0.00;;;;;;;25.71;44.22;99957.53;5088063;28;20084;-69
2022/06/08 10:17:53;;;;;;;2.25;0.30;;;;;;;25.72;44.08;99956.47;5087980;28;20032;-69
2022/06/08 10:20:23;;;;;;;0.30;0.00;;;;;;;25.73;44.06;99955.41;5087936;28;20102;-69
2022/06/08 10:22:54;;;;;;;0.52;0.00;;;;;;;25.75;43.86;99956.78;5087846;28;20088;-69
2022/06/08 10:25:38;;;;;;;0.00;0.00;;;;;;;25.76;43.50;99952.25;5087915;28;20020;-69
2022/06/08 10:28:27;;;;;;;0.15;0.00;;;;;;;25.73;43.61;99953.56;5088255;28;20032;-69
2022/06/08 10:31:19;;;;;;;0.20;0.00;;;;;;;25.76;43.53;99949.56;5087798;28;20020;-69
2022/06/08 10:33:51;;;;;;;0.10;0.00;;;;;;;25.78;43.26;99944.78;5087953;28;20047;-69
2022/06/08 10:36:17;;;;;;;0.77;0.08;;;;;;;25.78;42.80;99937.56;5088101;28;20032;-69
2022/06/08 10:38:43;;;;;;;4.10;0.00;;;;;;;25.81;43.07;99938.13;5086723;28;20561;-69
2022/06/08 10:42:39;;;;;;;0.98;0.00;;;;;;;25.82;42.76;99939.72;5087819;28;20024;-69
2022/06/08 10:43:59;;;;;;;0.00;0.00;;;;;;;25.82;42.43;99937.88;5087605;28;20435;-69
2022/06/08 10:46:45;;;;;;;0.90;0.00;;;;;;;25.81;42.38;99938.94;5087813;28;20020;-69
2022/06/08 10:49:31;;;;;;;0.00;0.00;;;;;;;25.79;42.42;99939.19;5087627;28;20483;-69
2022/06/08 10:52:45;;;;;;;0.40;0.00;;;;;;;25.85;43.62;99939.22;5087505;28;20146;-69
2022/06/08 10:55:17;;;;;;;0.77;0.00;;;;;;;26.03;43.73;99936.09;5080757;28;20521;-69
2022/06/08 10:57:49;;;;;;;0.68;0.00;;;;;;;26.14;43.38;99935.09;5087599;28;20408;-69
2022/06/08 11:00:20;;;;;;;1.70;0.00;;;;;;;26.24;43.50;99929.00;5087564;28;20075;-69
2022/06/08 11:02:54;;;;;;;2.00;0.30;;;;;;;26.42;42.73;99939.28;5087186;28;20488;-68
2022/06/08 11:05:29;;;;;;;51.53;46.90;;;;;;;26.65;42.16;99938.81;5088153;28;20366;-68
2022/06/08 11:08:06;;;;;;;24.73;3.63;;;;;;;26.78;43.43;99935.66;5091653;28;20036;-69
2022/06/08 11:10:54;;;;;;;1.15;0.40;;;;;;;26.88;45.66;99929.53;5091713;28;20063;-69
2022/06/08 11:13:22;;;;;;;0.95;0.10;;;;;;;26.75;44.89;99917.47;5075897;28;20071;-69
2022/06/08 11:15:56;;;;;;;1.58;0.10;;;;;;;26.73;49.78;99919.59;5071209;28;20112;-69
2022/06/08 11:18:41;;;;;;;2.42;0.20;;;;;;;26.81;49.64;99915.59;5070913;28;20374;-69
2022/06/08 11:21:15;;;;;;;0.20;0.00;;;;;;;27.07;47.15;99919.13;5070939;28;20047;-69
2022/06/08 11:23:49;;;;;;;0.33;0.00;;;;;;;26.99;43.91;99919.66;5070531;28;20404;-69
2022/06/08 11:26:14;;;;;;;0.45;0.00;;;;;;;26.81;42.31;99912.13;5070804;28;20071;-69
2022/06/08 11:28:44;;;;;;;1.08;0.10;;;;;;;26.68;41.72;99911.56;5070950;28;20056;-69
2022/06/08 11:31:25;;;;;;;0.63;0.00;;;;;;;26.57;40.82;99917.13;5070641;28;20063;-69
2022/06/08 11:33:56;;;;;;;1.05;0.00;;;;;;;26.52;40.97;99912.56;5070508;28;20028;-69
2022/06/08 11:36:54;;;;;;;1.20;0.00;;;;;;;26.46;40.43;99907.50;5070778;28;20447;-69
2022/06/08 11:39:25;;;;;;;0.10;0.00;;;;;;;26.41;40.93;99902.94;5070986;28;20064;-69
2022/06/08 11:41:58;;;;;;;0.30;0.00;;;;;;;26.37;40.71;99900.00;5070569;28;20028;-69
2022/06/08 11:44:30;;;;;;;0.22;0.00;;;;;;;26.35;40.93;99895.97;5070306;28;20135;-69
2022/06/08 11:47:34;;;;;;;0.98;0.10;;;;;;;26.30;40.39;99891.41;5070861;28;20310;-69
2022/06/08 11:50:03;;;;;;;0.73;0.00;;;;;;;26.29;40.80;99897.00;5069769;28;20039;-69
2022/06/08 11:52:35;;;;;;;3.13;0.10;;;;;;;26.28;41.23;99888.19;5070371;28;20066;-69
2022/06/08 11:55:08;;;;;;;4.72;0.20;;;;;;;26.27;41.75;99886.56;5070184;28;20039;-69
2022/06/08 11:57:34;;;;;;;0.20;0.00;;;;;;;26.25;41.53;99880.69;5070645;28;20025;-69
2022/06/08 12:00:03;;;;;;;0.73;0.00;;;;;;;26.24;41.01;99880.97;5070266;28;20028;-69
2022/06/08 12:02:39;;;;;;;1.85;0.00;;;;;;;26.22;40.63;99885.75;5070414;28;20021;-69